createdAt,value
2022-08-17T00:00:06.221Z,100.00
2022-08-17T00:02:35.998Z,100.00
2022-08-17T00:05:11.851Z,100.00
2022-08-17T00:07:39.673Z,100.00
2022-08-17T00:10:08.346Z,100.00
2022-08-17T00:12:44.314Z,100.00
2022-08-17T00:15:14.379Z,100.00
2022-08-17T00:17:43.420Z,100.00
2022-08-17T00:20:13.426Z,100.00
2022-08-17T00:22:42.944Z,100.00
2022-08-17T00:25:14.482Z,100.00
2022-08-17T00:27:42.454Z,100.00
2022-08-17T00:30:12.627Z,100.00
2022-08-17T00:33:11.821Z,100.00
2022-08-17T00:35:31.174Z,100.00
2022-08-17T00:37:58.738Z,100.00
2022-08-17T00:40:27.627Z,100.00
2022-08-17T00:43:36.666Z,100.00
2022-08-17T00:46:07.544Z,100.00
2022-08-17T00:48:36.474Z,100.00
2022-08-17T00:51:12.905Z,100.00
2022-08-17T00:53:44.103Z,100.00
2022-08-17T00:56:19.434Z,100.00
2022-08-17T00:58:47.069Z,100.00
2022-08-17T01:01:21.179Z,100.00
2022-08-17T01:03:50.119Z,100.00
2022-08-17T01:06:20.729Z,100.00
2022-08-17T01:08:57.273Z,100.00
2022-08-17T01:11:26.328Z,100.00
2022-08-17T01:13:54.431Z,100.00
2022-08-17T01:16:25.340Z,100.00
2022-08-17T01:18:56.381Z,100.00
2022-08-17T01:21:30.256Z,100.00
2022-08-17T01:23:59.703Z,100.00
2022-08-17T01:26:29.047Z,100.00
2022-08-17T01:28:57.026Z,100.00
2022-08-17T01:31:28.938Z,100.00
2022-08-17T01:33:57.846Z,100.00
2022-08-17T01:36:25.469Z,100.00
2022-08-17T01:38:53.085Z,100.00
2022-08-17T01:41:23.137Z,100.00
2022-08-17T01:43:55.019Z,100.00
2022-08-17T01:46:26.916Z,100.00
2022-08-17T01:48:56.259Z,100.00
2022-08-17T01:51:24.878Z,100.00
2022-08-17T01:53:55.222Z,100.00
2022-08-17T01:56:26.883Z,100.00
2022-08-17T01:58:55.173Z,100.00
2022-08-17T02:01:26.388Z,100.00
2022-08-17T02:04:00.447Z,100.00
2022-08-17T02:06:30.483Z,100.00
2022-08-17T02:09:03.111Z,100.00
2022-08-17T02:11:34.447Z,100.00
2022-08-17T02:14:04.093Z,100.00
2022-08-17T02:16:37.541Z,100.00
2022-08-17T02:19:09.083Z,100.00
2022-08-17T02:21:37.243Z,100.00
2022-08-17T02:24:05.981Z,100.00
2022-08-17T02:26:36.178Z,100.00
2022-08-17T02:29:04.237Z,100.00
2022-08-17T02:31:32.274Z,100.00
2022-08-17T02:34:04.469Z,100.00
2022-08-17T02:36:34.662Z,100.00
2022-08-17T02:39:02.791Z,100.00
2022-08-17T02:41:30.705Z,100.00
2022-08-17T02:43:59.715Z,100.00
2022-08-17T02:46:27.823Z,100.00
2022-08-17T02:48:55.668Z,100.00
2022-08-17T02:51:23.565Z,100.00
2022-08-17T02:53:51.228Z,100.00
2022-08-17T02:56:19.133Z,100.00
2022-08-17T02:58:47.441Z,100.00
2022-08-17T03:01:16.499Z,100.00
2022-08-17T03:03:44.222Z,100.00
2022-08-17T03:06:12.070Z,100.00
2022-08-17T03:08:40.537Z,100.00
2022-08-17T03:11:08.174Z,100.00
2022-08-17T03:13:35.851Z,100.00
2022-08-17T03:16:03.525Z,100.00
2022-08-17T03:18:32.615Z,100.00
2022-08-17T03:21:04.251Z,100.00
2022-08-17T03:23:32.689Z,100.00
2022-08-17T03:26:01.313Z,100.00
2022-08-17T03:28:29.890Z,100.00
2022-08-17T03:30:57.461Z,100.00
2022-08-17T03:33:25.134Z,100.00
2022-08-17T03:35:54.200Z,100.00
2022-08-17T03:38:21.987Z,100.00
2022-08-17T03:40:58.156Z,100.00
2022-08-17T03:43:28.892Z,100.00
2022-08-17T03:46:33.829Z,100.00
2022-08-17T03:49:19.388Z,100.00
2022-08-17T03:52:05.997Z,100.00
2022-08-17T03:54:51.555Z,100.00
2022-08-17T03:57:20.292Z,100.00
2022-08-17T03:59:48.338Z,100.00
2022-08-17T04:02:19.840Z,100.00
2022-08-17T04:04:50.606Z,100.00
2022-08-17T04:07:20.634Z,100.00
2022-08-17T04:09:48.691Z,100.00
2022-08-17T04:12:17.912Z,100.00
2022-08-17T04:14:52.214Z,98.67
2022-08-17T04:17:24.410Z,97.28
2022-08-17T04:19:52.216Z,97.18
2022-08-17T04:22:32.344Z,97.98
2022-08-17T04:25:08.926Z,94.67
2022-08-17T04:27:37.470Z,94.40
2022-08-17T04:30:06.865Z,94.55
2022-08-17T04:33:04.057Z,94.41
2022-08-17T04:35:37.487Z,93.86
2022-08-17T04:38:07.622Z,93.42
2022-08-17T04:40:53.445Z,92.83
2022-08-17T04:43:22.831Z,92.55
2022-08-17T04:45:56.048Z,91.19
2022-08-17T04:48:35.255Z,89.73
2022-08-17T04:51:07.073Z,90.00
2022-08-17T04:53:37.242Z,90.54
2022-08-17T04:56:05.625Z,91.10
2022-08-17T04:58:33.348Z,91.68
2022-08-17T05:01:01.387Z,91.67
2022-08-17T05:03:29.298Z,92.27
2022-08-17T05:05:56.951Z,91.92
2022-08-17T05:08:24.747Z,89.98
2022-08-17T05:10:53.820Z,89.42
2022-08-17T05:13:24.527Z,87.75
2022-08-17T05:15:55.887Z,87.00
2022-08-17T05:18:24.674Z,86.80
2022-08-17T05:20:53.374Z,87.62
2022-08-17T05:23:22.793Z,86.84
2022-08-17T05:25:54.614Z,87.19
2022-08-17T05:28:26.716Z,87.59
2022-08-17T05:30:56.772Z,88.11
2022-08-17T05:33:27.385Z,87.46
2022-08-17T05:35:57.439Z,86.71
2022-08-17T05:38:27.639Z,87.12
2022-08-17T05:40:57.394Z,86.69
2022-08-17T05:43:28.251Z,87.50
2022-08-17T05:46:03.794Z,88.61
2022-08-17T05:48:40.014Z,89.96
2022-08-17T05:51:31.248Z,89.87
2022-08-17T05:54:10.608Z,88.07
2022-08-17T05:57:00.935Z,89.63
2022-08-17T05:59:36.172Z,89.17
2022-08-17T06:02:10.835Z,88.65
2022-08-17T06:04:56.931Z,87.96
2022-08-17T06:07:32.750Z,89.11
2022-08-17T06:10:09.171Z,90.80
2022-08-17T06:12:47.185Z,91.86
2022-08-17T06:15:27.309Z,90.94
2022-08-17T06:17:58.399Z,89.78
2022-08-17T06:20:29.742Z,88.83
2022-08-17T06:23:03.851Z,86.67
2022-08-17T06:25:37.874Z,86.38
2022-08-17T06:28:13.842Z,84.23
2022-08-17T06:30:59.902Z,83.42
2022-08-17T06:33:34.064Z,84.94
2022-08-17T06:36:11.303Z,85.58
2022-08-17T06:38:54.749Z,87.52
2022-08-17T06:41:31.414Z,90.88
2022-08-17T06:44:42.258Z,91.52
2022-08-17T06:47:08.937Z,91.04
2022-08-17T06:49:45.311Z,91.92
2022-08-17T06:52:46.026Z,90.50
2022-08-17T06:55:18.703Z,82.88
2022-08-17T06:57:51.082Z,84.11
2022-08-17T07:00:23.178Z,86.93
2022-08-17T07:02:55.296Z,86.89
2022-08-17T07:05:27.890Z,88.34
2022-08-17T07:08:02.732Z,88.94
2022-08-17T07:10:36.019Z,89.45
2022-08-17T07:13:15.303Z,90.30
2022-08-17T07:15:45.804Z,91.95
2022-08-17T07:18:13.825Z,91.56
2022-08-17T07:20:45.823Z,92.02
2022-08-17T07:23:23.857Z,92.55
2022-08-17T07:25:51.641Z,92.29
2022-08-17T07:28:24.346Z,93.63
2022-08-17T07:30:55.399Z,93.75
2022-08-17T07:33:26.542Z,93.91
2022-08-17T07:35:54.920Z,93.68
2022-08-17T07:38:26.910Z,94.50
2022-08-17T07:41:03.761Z,94.29
2022-08-17T07:43:34.936Z,94.71
2022-08-17T07:46:35.435Z,94.42
2022-08-17T07:49:37.042Z,96.99
2022-08-17T07:52:48.128Z,98.21
2022-08-17T07:54:59.136Z,100.00
2022-08-17T07:57:37.067Z,100.00
2022-08-17T08:00:16.913Z,100.00
2022-08-17T08:02:59.913Z,99.83
2022-08-17T08:05:50.335Z,96.81
2022-08-17T08:08:25.354Z,97.06
2022-08-17T08:11:01.471Z,96.82
2022-08-17T08:13:32.143Z,95.79
2022-08-17T08:16:23.783Z,97.53
2022-08-17T08:18:57.157Z,96.58
2022-08-17T08:21:36.981Z,96.06
2022-08-17T08:24:30.016Z,95.96
2022-08-17T08:27:09.738Z,92.95
2022-08-17T08:29:47.306Z,89.66
2022-08-17T08:32:20.957Z,87.60
2022-08-17T08:35:01.607Z,89.37
2022-08-17T08:37:43.609Z,88.45
2022-08-17T08:40:29.980Z,88.73
2022-08-17T08:43:09.024Z,86.63
2022-08-17T08:45:45.209Z,84.77
2022-08-17T08:48:53.187Z,85.01
2022-08-17T08:51:22.367Z,85.55
2022-08-17T08:53:59.446Z,86.33
2022-08-17T08:56:35.216Z,86.21
2022-08-17T08:59:13.761Z,85.23
2022-08-17T09:01:51.694Z,83.59
2022-08-17T09:05:02.684Z,82.55
2022-08-17T09:07:34.706Z,79.36
2022-08-17T09:10:09.525Z,78.33
2022-08-17T09:12:47.546Z,76.90
2022-08-17T09:15:19.982Z,79.20
2022-08-17T09:18:14.642Z,79.29
2022-08-17T09:20:50.161Z,79.85
2022-08-17T09:23:32.392Z,80.03
2022-08-17T09:26:07.729Z,78.20
2022-08-17T09:28:37.777Z,76.17
2022-08-17T09:31:09.729Z,75.35
2022-08-17T09:33:43.998Z,73.79
2022-08-17T09:36:15.800Z,72.52
2022-08-17T09:38:57.965Z,74.13
2022-08-17T09:41:32.326Z,75.48
2022-08-17T09:44:03.978Z,77.42
2022-08-17T09:46:38.723Z,77.34
2022-08-17T09:49:11.881Z,76.46
2022-08-17T09:51:44.376Z,78.31
2022-08-17T09:54:38.666Z,76.08
2022-08-17T09:57:29.779Z,76.89
2022-08-17T10:00:13.167Z,75.89
2022-08-17T10:02:58.252Z,73.75
2022-08-17T10:05:32.473Z,71.52
2022-08-17T10:08:09.862Z,72.34
2022-08-17T10:10:52.450Z,72.75
2022-08-17T10:13:36.689Z,70.58
2022-08-17T10:16:14.683Z,69.18
2022-08-17T10:18:51.643Z,68.08
2022-08-17T10:21:38.034Z,67.76
2022-08-17T10:24:36.179Z,66.06
2022-08-17T10:27:11.641Z,64.31
2022-08-17T10:29:49.021Z,63.84
2022-08-17T10:32:26.509Z,62.34
2022-08-17T10:35:18.860Z,62.30
2022-08-17T10:38:01.119Z,63.62
2022-08-17T10:40:36.458Z,65.35
2022-08-17T10:43:24.756Z,64.34
2022-08-17T10:46:30.375Z,63.61
2022-08-17T10:49:14.451Z,63.59
2022-08-17T10:51:43.018Z,63.91
2022-08-17T10:54:36.308Z,62.54
2022-08-17T10:57:23.957Z,61.74
2022-08-17T10:59:54.803Z,62.02
2022-08-17T11:02:31.369Z,62.47
2022-08-17T11:05:14.711Z,63.72
2022-08-17T11:07:58.624Z,62.10
2022-08-17T11:10:54.997Z,62.18
2022-08-17T11:13:37.659Z,60.51
2022-08-17T11:16:23.288Z,60.17
2022-08-17T11:19:11.638Z,61.04
2022-08-17T11:21:54.779Z,60.42
2022-08-17T11:24:30.507Z,60.38
2022-08-17T11:27:13.526Z,59.63
2022-08-17T11:29:56.740Z,59.01
2022-08-17T11:32:37.558Z,57.28
2022-08-17T11:35:15.685Z,56.55
2022-08-17T11:37:55.026Z,54.79
2022-08-17T11:40:43.069Z,54.65
2022-08-17T11:43:48.969Z,55.25
2022-08-17T11:46:51.726Z,57.68
2022-08-17T11:49:45.154Z,59.36
2022-08-17T11:52:38.454Z,60.25
2022-08-17T11:55:33.925Z,60.49
2022-08-17T11:58:01.698Z,60.13
2022-08-17T12:00:58.409Z,58.07
2022-08-17T12:03:58.785Z,59.12
2022-08-17T12:06:44.952Z,60.71
2022-08-17T12:09:18.403Z,60.51
2022-08-17T12:11:58.665Z,60.54
2022-08-17T12:15:09.078Z,59.96
2022-08-17T12:17:52.057Z,61.67
2022-08-17T12:20:24.180Z,61.08
2022-08-17T12:23:04.221Z,60.68
2022-08-17T12:25:37.375Z,62.14
2022-08-17T12:28:20.141Z,62.01
2022-08-17T12:30:50.435Z,62.04
2022-08-17T12:33:25.247Z,62.39
2022-08-17T12:36:02.819Z,61.60
2022-08-17T12:38:34.392Z,59.76
2022-08-17T12:41:25.276Z,56.97
2022-08-17T12:44:02.050Z,54.53
2022-08-17T12:46:33.445Z,52.47
2022-08-17T12:49:16.129Z,49.69
2022-08-17T12:51:45.529Z,48.08
2022-08-17T12:54:29.527Z,46.87
2022-08-17T12:57:06.613Z,45.47
2022-08-17T12:59:34.359Z,44.17
2022-08-17T13:02:02.321Z,44.07
2022-08-17T13:04:30.188Z,43.46
2022-08-17T13:07:00.193Z,42.36
2022-08-17T13:09:35.830Z,41.24
2022-08-17T13:12:08.888Z,41.12
2022-08-17T13:14:36.696Z,40.37
2022-08-17T13:17:08.584Z,40.45
2022-08-17T13:19:49.297Z,41.92
2022-08-17T13:22:18.294Z,41.79
2022-08-17T13:24:54.298Z,43.60
2022-08-17T13:27:24.975Z,43.66
2022-08-17T13:29:55.739Z,43.49
2022-08-17T13:32:35.832Z,43.69
2022-08-17T13:35:32.814Z,43.93
2022-08-17T13:38:10.422Z,43.65
2022-08-17T13:40:43.469Z,44.16
2022-08-17T13:43:12.420Z,43.37
2022-08-17T13:45:52.215Z,42.18
2022-08-17T13:48:27.619Z,42.67
2022-08-17T13:51:14.688Z,43.17
2022-08-17T13:53:53.390Z,43.20
2022-08-17T13:56:55.663Z,42.37
2022-08-17T13:59:52.886Z,42.06
2022-08-17T14:02:27.777Z,41.16
2022-08-17T14:04:56.333Z,41.33
2022-08-17T14:07:32.350Z,41.17
2022-08-17T14:10:03.218Z,41.79
2022-08-17T14:12:35.433Z,41.41
2022-08-17T14:15:03.302Z,40.68
2022-08-17T14:17:35.072Z,40.87
2022-08-17T14:20:09.328Z,41.31
2022-08-17T14:22:39.223Z,42.81
2022-08-17T14:25:10.331Z,43.09
2022-08-17T14:27:51.913Z,42.40
2022-08-17T14:30:23.331Z,42.83
2022-08-17T14:32:51.915Z,42.56
2022-08-17T14:35:22.284Z,43.83
2022-08-17T14:37:50.074Z,45.42
2022-08-17T14:40:20.733Z,44.89
2022-08-17T14:42:49.806Z,44.96
2022-08-17T14:45:30.356Z,44.30
2022-08-17T14:48:00.357Z,44.32
2022-08-17T14:50:28.087Z,43.85
2022-08-17T14:52:57.879Z,43.00
2022-08-17T14:55:25.996Z,43.04
2022-08-17T14:57:54.986Z,42.21
2022-08-17T15:00:22.872Z,42.34
2022-08-17T15:02:53.666Z,41.43
2022-08-17T15:05:24.641Z,42.65
2022-08-17T15:07:52.797Z,42.71
2022-08-17T15:10:21.379Z,42.67
2022-08-17T15:12:49.731Z,42.53
2022-08-17T15:15:19.206Z,42.15
2022-08-17T15:17:46.863Z,41.62
2022-08-17T15:20:17.327Z,41.55
2022-08-17T15:22:49.477Z,40.86
2022-08-17T15:25:18.826Z,40.57
2022-08-17T15:27:47.342Z,40.34
2022-08-17T15:30:15.468Z,39.75
2022-08-17T15:32:50.868Z,40.29
2022-08-17T15:35:26.804Z,40.07
2022-08-17T15:37:56.453Z,39.68
2022-08-17T15:40:25.027Z,39.41
2022-08-17T15:42:52.993Z,39.41
2022-08-17T15:45:24.735Z,39.21
2022-08-17T15:47:54.003Z,39.62
2022-08-17T15:50:22.032Z,40.19
2022-08-17T15:52:56.394Z,39.92
2022-08-17T15:55:24.425Z,40.10
2022-08-17T15:57:53.093Z,40.36
2022-08-17T16:00:23.538Z,40.69
2022-08-17T16:03:44.715Z,41.41
2022-08-17T16:05:42.549Z,41.13
2022-08-17T16:08:11.060Z,40.73
2022-08-17T16:10:38.982Z,40.72
2022-08-17T16:13:17.634Z,40.70
2022-08-17T16:15:49.741Z,41.21
2022-08-17T16:18:30.898Z,41.19
2022-08-17T16:21:19.118Z,41.17
2022-08-17T16:23:47.091Z,41.92
2022-08-17T16:26:15.090Z,41.58
2022-08-17T16:28:42.937Z,41.89
2022-08-17T16:31:10.871Z,42.23
2022-08-17T16:33:40.302Z,42.13
2022-08-17T16:36:09.100Z,42.67
2022-08-17T16:38:38.559Z,42.74
2022-08-17T16:41:07.147Z,42.96
2022-08-17T16:43:35.905Z,42.72
2022-08-17T16:46:03.571Z,43.04
2022-08-17T16:48:31.829Z,43.00
2022-08-17T16:51:04.276Z,43.18
2022-08-17T16:53:32.850Z,43.11
2022-08-17T16:56:00.517Z,42.96
2022-08-17T16:58:28.373Z,43.25
2022-08-17T17:00:59.616Z,43.68
2022-08-17T17:03:30.226Z,43.68
2022-08-17T17:06:13.375Z,43.55
2022-08-17T17:08:46.646Z,43.92
2022-08-17T17:11:19.225Z,43.83
2022-08-17T17:13:54.062Z,44.03
2022-08-17T17:16:29.249Z,44.16
2022-08-17T17:19:06.817Z,43.99
2022-08-17T17:21:44.569Z,43.84
2022-08-17T17:24:19.377Z,44.25
2022-08-17T17:27:08.698Z,44.11
2022-08-17T17:29:50.269Z,44.23
2022-08-17T17:32:22.720Z,44.46
2022-08-17T17:34:58.691Z,44.28
2022-08-17T17:37:34.797Z,43.78
2022-08-17T17:40:06.520Z,44.11
2022-08-17T17:42:40.187Z,44.25
2022-08-17T17:45:16.936Z,44.29
2022-08-17T17:47:45.598Z,45.05
2022-08-17T17:50:14.106Z,44.78
2022-08-17T17:52:51.163Z,45.27
2022-08-17T17:55:34.325Z,45.66
2022-08-17T17:58:13.268Z,45.79
2022-08-17T18:00:49.029Z,46.31
2022-08-17T18:03:35.070Z,46.46
2022-08-17T18:06:15.023Z,47.08
2022-08-17T18:08:57.256Z,47.49
2022-08-17T18:11:54.035Z,47.16
2022-08-17T18:14:43.199Z,47.22
2022-08-17T18:17:11.114Z,47.60
2022-08-17T18:19:40.859Z,48.15
2022-08-17T18:22:14.496Z,48.17
2022-08-17T18:24:46.120Z,48.95
2022-08-17T18:27:24.275Z,49.65
2022-08-17T18:29:54.086Z,49.73
2022-08-17T18:32:32.442Z,50.60
2022-08-17T18:35:27.797Z,51.19
2022-08-17T18:37:58.915Z,51.66
2022-08-17T18:40:36.270Z,52.61
2022-08-17T18:43:08.467Z,52.94
2022-08-17T18:45:40.778Z,53.06
2022-08-17T18:48:22.231Z,54.41
2022-08-17T18:50:53.550Z,54.89
2022-08-17T18:53:42.212Z,54.95
2022-08-17T18:56:30.512Z,55.37
2022-08-17T18:59:35.114Z,55.72
2022-08-17T19:02:34.630Z,56.03
2022-08-17T19:05:13.388Z,57.00
2022-08-17T19:07:43.684Z,57.39
2022-08-17T19:10:19.907Z,58.10
2022-08-17T19:12:52.690Z,57.84
2022-08-17T19:15:27.720Z,58.36
2022-08-17T19:18:00.302Z,58.29
2022-08-17T19:20:32.622Z,58.92
2022-08-17T19:23:21.239Z,59.92
2022-08-17T19:25:53.656Z,61.13
2022-08-17T19:28:25.685Z,62.12
2022-08-17T19:30:58.193Z,62.69
2022-08-17T19:33:26.851Z,63.32
2022-08-17T19:36:04.126Z,63.80
2022-08-17T19:38:45.900Z,63.59
2022-08-17T19:41:23.241Z,63.22
2022-08-17T19:44:12.676Z,65.17
2022-08-17T19:46:50.019Z,65.95
2022-08-17T19:49:32.816Z,66.36
2022-08-17T19:52:07.911Z,66.95
2022-08-17T19:54:41.454Z,67.51
2022-08-17T19:57:21.351Z,68.63
2022-08-17T19:59:55.027Z,69.20
2022-08-17T20:02:35.174Z,69.65
2022-08-17T20:05:18.044Z,70.08
2022-08-17T20:07:54.481Z,69.93
2022-08-17T20:10:39.412Z,70.15
2022-08-17T20:13:11.075Z,70.36
2022-08-17T20:15:42.794Z,70.98
2022-08-17T20:18:17.323Z,71.29
2022-08-17T20:20:56.679Z,71.57
2022-08-17T20:23:36.485Z,71.78
2022-08-17T20:26:17.167Z,71.93
2022-08-17T20:29:31.858Z,71.98
2022-08-17T20:32:26.561Z,71.82
2022-08-17T20:35:23.551Z,72.22
2022-08-17T20:37:55.760Z,72.20
2022-08-17T20:40:28.434Z,72.51
2022-08-17T20:42:57.067Z,72.91
2022-08-17T20:45:54.987Z,73.06
2022-08-17T20:48:38.057Z,73.17
2022-08-17T20:51:27.043Z,73.18
2022-08-17T20:54:26.412Z,73.41
2022-08-17T20:56:57.678Z,73.36
2022-08-17T21:00:18.167Z,73.72
2022-08-17T21:02:49.532Z,73.62
2022-08-17T21:05:59.782Z,74.04
2022-08-17T21:08:30.382Z,73.82
2022-08-17T21:11:00.150Z,73.30
2022-08-17T21:14:05.063Z,73.14
2022-08-17T21:16:42.249Z,73.70
2022-08-17T21:19:24.949Z,73.81
2022-08-17T21:22:04.106Z,74.04
2022-08-17T21:24:44.479Z,73.63
2022-08-17T21:27:26.939Z,74.21
2022-08-17T21:30:16.515Z,74.52
2022-08-17T21:33:25.008Z,74.93
2022-08-17T21:36:11.308Z,75.69
2022-08-17T21:38:42.559Z,76.24
2022-08-17T21:41:20.721Z,76.35
2022-08-17T21:43:51.986Z,76.98
2022-08-17T21:46:28.532Z,76.91
2022-08-17T21:49:03.337Z,77.08
2022-08-17T21:51:45.765Z,76.90
2022-08-17T21:54:30.836Z,76.52
2022-08-17T21:57:00.844Z,76.56
2022-08-17T21:59:31.652Z,76.54
2022-08-17T22:02:01.963Z,76.69
2022-08-17T22:04:31.916Z,76.96
2022-08-17T22:07:02.526Z,77.32
2022-08-17T22:09:33.350Z,77.35
2022-08-17T22:12:05.684Z,77.80
2022-08-17T22:14:52.345Z,77.88
2022-08-17T22:17:24.627Z,77.71
2022-08-17T22:19:54.831Z,77.93
2022-08-17T22:22:32.469Z,77.60
2022-08-17T22:25:02.433Z,77.42
2022-08-17T22:27:49.644Z,77.54
2022-08-17T22:30:30.575Z,77.73
2022-08-17T22:32:59.300Z,77.51
2022-08-17T22:35:34.442Z,78.05
2022-08-17T22:38:32.854Z,78.49
2022-08-17T22:41:30.099Z,78.13
2022-08-17T22:43:59.376Z,78.22
2022-08-17T22:46:27.452Z,78.46
2022-08-17T22:48:57.857Z,78.50
2022-08-17T22:51:30.218Z,78.35
2022-08-17T22:54:20.473Z,78.07
2022-08-17T22:57:18.743Z,76.24
2022-08-17T22:59:49.210Z,74.65
2022-08-17T23:02:21.370Z,74.21
2022-08-17T23:04:52.916Z,72.87
2022-08-17T23:07:22.212Z,73.47
2022-08-17T23:09:53.029Z,73.71
2022-08-17T23:12:27.138Z,73.64
2022-08-17T23:15:01.516Z,73.69
2022-08-17T23:17:33.859Z,75.42
2022-08-17T23:20:05.738Z,74.35
2022-08-17T23:22:34.151Z,75.69
2022-08-17T23:25:03.659Z,77.07
2022-08-17T23:27:32.247Z,76.74
2022-08-17T23:29:59.933Z,77.27
2022-08-17T23:32:28.483Z,78.29
2022-08-17T23:34:56.606Z,79.38
2022-08-17T23:37:25.928Z,78.99
2022-08-17T23:39:53.985Z,79.70
2022-08-17T23:42:23.042Z,79.61
2022-08-17T23:44:50.690Z,78.60
2022-08-17T23:47:18.474Z,79.80
2022-08-17T23:49:46.251Z,79.98
2022-08-17T23:52:16.381Z,81.00
2022-08-17T23:54:46.518Z,81.33
2022-08-17T23:57:16.672Z,81.00
2022-08-17T23:59:46.246Z,81.28
